Airfield :
LOGIN :

Register | Disclaimer

   EN    FR    IT 

 










Legend :    VFR   Marginal VFR   IFR   Intensive IFR   Very Intensive IFR
Visi :
Ceiling :
>= 8 km
>= 3000ft
5 to 8 km
1000 to 3000 ft
1500m to 5 km
500 to 1000 ft
800 to 1500m
200 to 500 ft
< 800m
< 200 ft
Symbols :   Thunderstorms  Fog  Heavy snow  Heavy precipitations  Wind > 20 kt
SIGMETs :     Misc.  Thunderstorms  Icing  Turbulence  Mountain Waves  Volcanic Ashes







- Airport Elevation : 97 ft
- IATA code : EBJ


EKEB - Esbjerg

CURRENT METAR :
  • 221220Z AUTO 07006KT 040V100 9999NDV FEW011/// BKN028/// 04/01 Q1027

EXPIRED METARs :
  • 221150Z AUTO 08005KT 030V130 7000NDV OVC011/// 03/01 Q1027
  • 221120Z AUTO 09004KT 060V130 9000NDV OVC010/// 04/01 Q1028
  • 221050Z AUTO 07004KT 040V120 7000NDV OVC008/// 03/01 Q1028
  • 221020Z AUTO 07005KT 040V110 6000NDV BKN005/// 03/02 Q1028
  • 220950Z AUTO 07004KT 030V100 3700NDV BR OVC003/// 02/01 Q1028
  • 220920Z AUTO 08004KT 050V120 2200NDV BR OVC003/// 02/01 Q1027

TAF TAF EKEB
Valid from the 22 at 12:00 until the 22 at 21:00 UTC


221124Z 2212/2221 05005KT 9999 BKN009
BECMG 2212/2215 SCT015
No reported NOTAMs for that airfield.



MET'MAP, your aeronautical weather chart ! - Copyright ORBIFLY December 2007 - Disclaimer

ORBIFLY MET'MAP TEAM :

Programming & Development : Alexandra Zaïnal
Concept & Development : Baudouin d'Aumeries
Co-Development & Prog : Marc-Olivier Méhu
Technical & hardware support : Manuel Goepfert

Contact : metmap@orbifly.com




SOURCES & CREDITS :

   NOAA